Time;durP1;ratioP1;P1;durP2;ratioP2;P2;SDS_P1;SDS_P2;PMS_P1;PMS_P2;Temp;Humidity;BMP_temperature;BMP_pressure;BME280_temperature;BME280_humidity;BME280_pressure;Samples;Min_cycle;Max_cycle;Signal;HPM_P1;HPM_P2
2024/03/24 00:00:00;;;;;;;;;7.25;2.00;;;;;7.33;72.14;100742.44;5053026;28;68992;-59
2024/03/24 00:02:25;;;;;;;;;4.00;2.75;;;;;7.31;72.04;100734.66;5054738;28;67931;-59
2024/03/24 00:04:50;;;;;;;;;3.00;2.00;;;;;7.29;72.22;100731.19;5052893;28;72953;-59
2024/03/24 00:07:16;;;;;;;;;1.75;1.75;;;;;7.29;72.35;100739.00;5056270;28;70446;-63
2024/03/24 00:09:41;;;;;;;;;1.75;1.25;;;;;7.29;72.27;100731.19;5053817;28;45520;-60
2024/03/24 00:12:07;;;;;;;;;1.25;1.25;;;;;7.26;72.46;100736.47;5052453;28;45616;-60
2024/03/24 00:14:32;;;;;;;;;0.75;0.75;;;;;7.25;72.26;100729.53;5053628;28;45415;-59
2024/03/24 00:16:57;;;;;;;;;4.25;1.00;;;;;7.20;72.11;100724.38;5055160;28;49975;-62
2024/03/24 00:19:23;;;;;;;;;3.00;0.00;;;;;7.19;72.34;100732.22;5056388;28;56207;-60
2024/03/24 00:21:49;;;;;;;;;3.25;2.00;;;;;7.19;72.48;100738.28;5054948;28;45417;-65
2024/03/24 00:24:15;;;;;;;;;3.75;2.00;;;;;7.21;72.51;100733.91;5055090;28;45628;-60
2024/03/24 00:26:40;;;;;;;;;2.75;2.75;;;;;7.21;72.53;100744.34;5056723;28;73433;-60
2024/03/24 00:29:05;;;;;;;;;2.50;1.25;;;;;7.21;72.78;100738.28;5053304;28;70267;-60
2024/03/24 00:31:30;;;;;;;;;2.00;1.00;;;;;7.21;72.24;100741.72;5055161;28;69321;-59
2024/03/24 00:33:56;;;;;;;;;1.00;1.00;;;;;7.16;71.99;100743.53;5059134;28;56303;-59
2024/03/24 00:36:21;;;;;;;;;1.75;1.00;;;;;7.15;72.30;100743.53;5057496;28;67937;-60
2024/03/24 00:38:48;;;;;;;;;1.25;0.50;;;;;7.13;72.45;100738.34;5056145;28;63424;-59
2024/03/24 00:41:13;;;;;;;;;1.00;0.75;;;;;7.12;72.29;100727.97;5053644;28;45743;-60
2024/03/24 00:43:38;;;;;;;;;1.50;0.00;;;;;7.08;72.34;100726.28;5051951;27;71140;-60
2024/03/24 00:46:04;;;;;;;;;1.00;1.00;;;;;7.09;72.59;100730.63;5051401;28;75757;-59
2024/03/24 00:48:29;;;;;;;;;1.25;1.00;;;;;7.06;72.72;100730.66;5057051;28;73279;-59
2024/03/24 00:50:55;;;;;;;;;1.00;1.00;;;;;7.04;72.77;100725.47;5055027;28;45431;-60
2024/03/24 00:53:20;;;;;;;;;1.50;0.00;;;;;7.04;72.98;100728.06;5055408;28;45513;-60
2024/03/24 00:55:46;;;;;;;;;2.25;1.00;;;;;7.05;72.97;100727.19;5056244;28;46022;-59
2024/03/24 00:58:11;;;;;;;;;4.00;0.00;;;;;7.04;72.96;100722.88;5049126;28;71886;-59
2024/03/24 01:00:36;;;;;;;;;2.00;1.75;;;;;7.02;73.10;100722.03;5055222;28;67705;-59
2024/03/24 01:03:02;;;;;;;;;3.75;1.25;;;;;7.00;72.70;100714.22;5057515;28;45453;-59
2024/03/24 01:05:27;;;;;;;;;1.75;1.00;;;;;7.02;73.00;100712.47;5057089;28;46132;-60
2024/03/24 01:07:52;;;;;;;;;0.50;0.50;;;;;7.03;73.00;100710.75;5048406;27;61740;-59
2024/03/24 01:10:18;;;;;;;;;4.75;1.00;;;;;7.03;73.10;100714.19;5057473;28;63387;-60
2024/03/24 01:12:43;;;;;;;;;2.00;1.00;;;;;7.03;73.03;100711.59;5057975;28;66836;-60
2024/03/24 01:15:11;;;;;;;;;1.00;1.00;;;;;7.03;73.11;100710.75;5056958;28;46036;-59
2024/03/24 01:17:37;;;;;;;;;3.00;0.00;;;;;7.01;72.98;100705.56;5056723;28;45437;-58
2024/03/24 01:20:02;;;;;;;;;2.75;1.00;;;;;7.01;73.27;100699.47;5057119;28;46543;-60
2024/03/24 01:22:29;;;;;;;;;3.25;0.50;;;;;7.01;73.23;100695.16;5053977;28;45469;-60
2024/03/24 01:24:54;;;;;;;;;0.50;0.25;;;;;6.98;73.29;100692.59;5053920;28;46819;-59
2024/03/24 01:27:19;;;;;;;;;4.25;2.00;;;;;7.02;73.32;100693.41;5048613;28;64532;-60
2024/03/24 01:29:44;;;;;;;;;2.75;0.00;;;;;7.03;73.30;100698.59;5058908;28;45333;-58
2024/03/24 01:32:10;;;;;;;;;2.00;0.75;;;;;7.04;73.17;100699.44;5058484;28;71605;-60
2024/03/24 01:34:35;;;;;;;;;2.25;0.75;;;;;7.05;73.25;100701.19;5057419;28;75646;-61
2024/03/24 01:37:00;;;;;;;;;2.00;1.00;;;;;7.05;73.02;100706.38;5049491;28;47002;-60
2024/03/24 01:39:26;;;;;;;;;3.00;1.00;;;;;7.03;72.93;100705.53;5056993;28;55672;-60
2024/03/24 01:41:51;;;;;;;;;1.25;1.00;;;;;7.01;73.01;100697.75;5055990;28;65000;-60
2024/03/24 01:44:16;;;;;;;;;0.50;0.00;;;;;7.02;73.29;100690.81;5058700;28;47167;-60
2024/03/24 01:46:42;;;;;;;;;3.25;1.00;;;;;7.01;73.06;100695.16;5057455;28;45442;-60
2024/03/24 01:49:07;;;;;;;;;2.00;1.00;;;;;7.01;72.83;100695.16;5047305;28;45289;-60
2024/03/24 01:51:34;;;;;;;;;1.00;0.00;;;;;6.99;73.00;100690.84;5049119;28;45491;-60
2024/03/24 01:54:00;;;;;;;;;1.00;1.00;;;;;7.01;72.92;100683.88;5060274;28;46227;-60
2024/03/24 01:56:25;;;;;;;;;0.25;0.25;;;;;7.01;72.88;100683.88;5058068;28;45376;-58
2024/03/24 01:58:50;;;;;;;;;4.00;1.00;;;;;7.01;72.91;100678.66;5056970;28;51477;-59
2024/03/24 02:01:16;;;;;;;;;1.00;1.00;;;;;7.03;72.99;100675.19;5059834;28;47823;-59
2024/03/24 02:03:42;;;;;;;;;1.00;1.00;;;;;7.06;72.84;100683.81;5046874;28;45340;-60
2024/03/24 02:06:07;;;;;;;;;1.00;0.00;;;;;7.03;72.92;100682.97;5048003;28;67173;-59
2024/03/24 02:08:32;;;;;;;;;2.00;0.25;;;;;7.01;72.86;100676.06;5058204;28;63218;-60
2024/03/24 02:10:59;;;;;;;;;2.25;1.00;;;;;6.98;72.97;100676.97;5060216;28;60160;-60
2024/03/24 02:13:25;;;;;;;;;1.00;1.00;;;;;7.00;73.15;100682.16;5057706;28;46296;-60
2024/03/24 02:15:51;;;;;;;;;4.00;1.00;;;;;7.01;72.87;100683.88;5061662;28;45348;-60
2024/03/24 02:18:17;;;;;;;;;0.75;0.50;;;;;7.00;73.00;100687.38;5046960;28;45229;-59
2024/03/24 02:20:42;;;;;;;;;1.25;1.00;;;;;6.99;72.89;100686.50;5057648;28;45473;-59
2024/03/24 02:23:08;;;;;;;;;1.00;0.25;;;;;6.99;72.71;100683.91;5054847;28;61812;-58
2024/03/24 02:25:33;;;;;;;;;1.00;1.00;;;;;7.00;72.82;100676.97;5053115;28;45442;-60
2024/03/24 02:27:59;;;;;;;;;0.00;0.00;;;;;7.00;72.73;100676.97;5056010;28;68150;-60
2024/03/24 02:30:24;;;;;;;;;1.00;1.00;;;;;6.95;72.47;100658.78;5059917;28;45940;-60
2024/03/24 02:32:49;;;;;;;;;2.75;0.00;;;;;7.01;72.58;100665.66;5059142;28;75794;-59
2024/03/24 02:35:15;;;;;;;;;1.00;1.00;;;;;7.00;72.70;100669.16;5051209;28;68009;-60
2024/03/24 02:37:40;;;;;;;;;1.50;1.25;;;;;7.01;72.56;100676.94;5059784;28;45355;-60
2024/03/24 02:40:09;;;;;;;;;3.00;0.75;;;;;7.02;72.62;100670.00;5058404;28;63210;-60
2024/03/24 02:42:37;;;;;;;;;2.00;0.50;;;;;7.01;72.32;100669.13;5059472;28;47037;-61
2024/03/24 02:45:03;;;;;;;;;0.50;0.50;;;;;7.01;72.22;100673.47;5060296;28;45857;-61
2024/03/24 02:47:29;;;;;;;;;3.25;1.00;;;;;7.00;72.34;100671.75;5057777;28;45259;-60
2024/03/24 02:49:54;;;;;;;;;1.00;1.00;;;;;6.94;72.36;100664.91;5050844;28;45572;-61
2024/03/24 02:52:19;;;;;;;;;3.25;1.25;;;;;6.97;72.30;100666.59;5056835;28;74166;-60
2024/03/24 02:54:45;;;;;;;;;0.50;0.25;;;;;6.97;72.28;100669.19;5054175;28;74011;-60
2024/03/24 02:57:11;;;;;;;;;2.00;0.75;;;;;6.97;72.35;100669.19;5058800;28;49251;-60
2024/03/24 02:59:36;;;;;;;;;3.00;1.00;;;;;6.98;72.19;100665.72;5057117;28;45395;-58
2024/03/24 03:02:02;;;;;;;;;1.75;1.50;;;;;6.98;72.29;100671.78;5059311;28;45426;-58
2024/03/24 03:04:29;;;;;;;;;1.25;0.25;;;;;6.97;72.21;100677.00;5058297;28;45487;-60
2024/03/24 03:06:54;;;;;;;;;1.00;1.00;;;;;6.96;72.16;100665.72;5057563;28;45565;-58
2024/03/24 03:09:19;;;;;;;;;1.75;1.00;;;;;6.96;72.22;100668.34;5051659;28;45436;-58
2024/03/24 03:11:44;;;;;;;;;3.75;1.00;;;;;6.97;72.20;100672.63;5059404;28;71726;-59
2024/03/24 03:14:10;;;;;;;;;2.50;0.25;;;;;6.97;71.91;100666.59;5058904;28;45342;-59
2024/03/24 03:16:35;;;;;;;;;4.00;2.00;;;;;6.93;72.01;100659.72;5047128;28;45313;-60
2024/03/24 03:19:01;;;;;;;;;2.50;2.00;;;;;6.94;72.27;100659.69;5073608;27;45765;-60
2024/03/24 03:21:27;;;;;;;;;1.75;1.00;;;;;6.94;72.30;100670.09;5059711;28;45574;-61
2024/03/24 03:23:55;;;;;;;;;3.00;1.00;;;;;6.95;72.15;100665.75;5057825;28;45469;-59
2024/03/24 03:26:21;;;;;;;;;1.00;1.00;;;;;6.96;72.05;100668.34;5057289;28;62034;-60
2024/03/24 03:28:46;;;;;;;;;1.75;1.00;;;;;6.98;71.94;100668.31;5054203;28;45772;-61
2024/03/24 03:31:12;;;;;;;;;0.25;0.25;;;;;6.96;72.00;100663.13;5048736;28;48988;-59
2024/03/24 03:33:37;;;;;;;;;1.00;1.00;;;;;6.98;72.04;100668.31;5056909;28;45415;-59
2024/03/24 03:36:03;;;;;;;;;3.00;1.00;;;;;6.97;72.07;100661.38;5056360;28;64409;-59
2024/03/24 03:38:30;;;;;;;;;2.50;1.50;;;;;6.99;71.92;100662.22;5054021;28;45461;-59
2024/03/24 03:40:55;;;;;;;;;3.25;0.25;;;;;6.99;71.96;100665.69;5054917;28;45437;-60
2024/03/24 03:43:21;;;;;;;;;2.75;1.00;;;;;7.00;72.10;100664.81;5056202;28;61589;-61
2024/03/24 03:45:47;;;;;;;;;4.75;1.00;;;;;7.00;71.59;100666.56;5059405;28;45225;-61
2024/03/24 03:48:12;;;;;;;;;3.00;1.25;;;;;6.99;71.90;100672.63;5051381;28;45422;-60
2024/03/24 03:50:39;;;;;;;;;0.75;0.00;;;;;6.97;71.84;100669.19;5058059;28;51162;-60
2024/03/24 03:53:06;;;;;;;;;2.25;1.00;;;;;6.95;71.74;100664.00;5059027;28;45506;-60
2024/03/24 03:55:33;;;;;;;;;1.00;1.00;;;;;6.95;71.91;100668.34;5059121;28;45497;-59
2024/03/24 03:57:59;;;;;;;;;1.75;0.00;;;;;6.93;71.86;100667.50;5049344;28;45593;-59
2024/03/24 04:00:24;;;;;;;;;2.00;0.00;;;;;6.91;71.98;100666.69;5057814;28;46295;-60
2024/03/24 04:02:49;;;;;;;;;3.25;0.50;;;;;6.91;72.17;100662.31;5064391;28;71318;-59
2024/03/24 04:05:15;;;;;;;;;1.00;0.00;;;;;6.89;72.00;100664.09;5063008;27;69916;-60
2024/03/24 04:07:41;;;;;;;;;0.75;0.25;;;;;6.87;72.10;100658.06;5047440;28;45561;-59
2024/03/24 04:10:07;;;;;;;;;1.00;1.00;;;;;6.87;72.05;100657.16;5058439;28;45437;-59
2024/03/24 04:12:32;;;;;;;;;2.00;0.50;;;;;6.84;72.02;100661.53;5059160;28;45279;-59
2024/03/24 04:14:59;;;;;;;;;4.75;1.00;;;;;6.81;72.08;100669.38;5052961;28;45379;-59
2024/03/24 04:17:25;;;;;;;;;1.00;1.00;;;;;6.77;72.14;100667.69;5048005;28;45531;-59
2024/03/24 04:19:51;;;;;;;;;1.00;1.00;;;;;6.75;72.24;100661.66;5056061;28;47220;-59
2024/03/24 04:22:17;;;;;;;;;1.00;1.00;;;;;6.76;72.35;100665.13;5059156;28;45300;-59
2024/03/24 04:24:42;;;;;;;;;3.00;0.00;;;;;6.76;72.52;100672.91;5056848;28;45323;-59
2024/03/24 04:27:07;;;;;;;;;4.50;0.00;;;;;6.76;72.40;100678.13;5058123;28;60532;-59
2024/03/24 04:29:33;;;;;;;;;0.75;0.00;;;;;6.77;72.31;100675.50;5056783;28;73941;-59
2024/03/24 04:31:58;;;;;;;;;2.00;1.00;;;;;6.79;72.57;100681.53;5053957;28;46061;-59
2024/03/24 04:34:23;;;;;;;;;1.50;1.00;;;;;6.80;72.45;100683.28;5054054;28;68278;-58
2024/03/24 04:36:49;;;;;;;;;3.00;0.00;;;;;6.77;72.27;100683.31;5038867;28;73281;-59
2024/03/24 04:39:18;;;;;;;;;1.50;1.00;;;;;6.78;72.35;100677.25;5054313;28;69220;-59
2024/03/24 04:41:44;;;;;;;;;1.00;0.00;;;;;6.76;72.30;100684.16;5051009;28;45363;-60
2024/03/24 04:44:10;;;;;;;;;3.00;1.75;;;;;6.79;72.36;100688.50;5056765;28;45319;-59
2024/03/24 04:46:35;;;;;;;;;2.75;1.00;;;;;6.76;72.45;100683.31;5056741;28;45234;-59
2024/03/24 04:49:01;;;;;;;;;0.50;0.25;;;;;6.77;72.43;100685.91;5050117;28;46248;-59
2024/03/24 04:51:26;;;;;;;;;2.50;1.00;;;;;6.77;72.60;100688.50;5050030;28;73426;-59
2024/03/24 04:53:51;;;;;;;;;1.00;1.00;;;;;6.78;72.52;100704.97;5056467;28;68332;-59
2024/03/24 04:56:16;;;;;;;;;1.25;0.00;;;;;6.79;72.69;100704.94;5038558;28;74990;-59
2024/03/24 04:58:42;;;;;;;;;1.50;0.75;;;;;6.79;72.72;100715.34;5055750;28;75315;-59
2024/03/24 05:01:08;;;;;;;;;4.00;1.00;;;;;6.79;72.63;100702.34;5046744;28;45257;-59
2024/03/24 05:03:33;;;;;;;;;3.00;1.00;;;;;6.81;72.45;100700.59;5054909;28;69927;-59
2024/03/24 05:05:58;;;;;;;;;2.50;0.00;;;;;6.80;72.55;100706.69;5056825;28;45477;-59
2024/03/24 05:08:24;;;;;;;;;2.00;0.00;;;;;6.80;72.40;100698.88;5054730;28;58035;-59
2024/03/24 05:10:50;;;;;;;;;1.00;1.00;;;;;6.81;72.35;100702.34;5058466;28;73143;-59
2024/03/24 05:13:15;;;;;;;;;0.00;0.00;;;;;6.80;72.37;100696.28;5057174;28;45277;-59
2024/03/24 05:15:41;;;;;;;;;4.00;0.00;;;;;6.75;72.25;100682.47;5038272;28;68893;-59
2024/03/24 05:18:08;;;;;;;;;1.50;1.00;;;;;6.78;72.31;100679.84;5050587;28;46154;-59
2024/03/24 05:20:36;;;;;;;;;4.75;0.00;;;;;6.80;72.19;100690.22;5055046;28;45754;-58
2024/03/24 05:23:04;;;;;;;;;2.50;0.00;;;;;6.79;72.05;100691.09;5056462;28;69320;-60
2024/03/24 05:25:30;;;;;;;;;3.00;2.00;;;;;6.79;72.25;100686.75;5052572;28;45406;-59
2024/03/24 05:27:56;;;;;;;;;6.25;0.50;;;;;6.80;72.33;100683.28;5053674;28;46182;-59
2024/03/24 05:30:21;;;;;;;;;4.00;0.25;;;;;6.81;72.31;100684.97;5056972;28;69494;-58
2024/03/24 05:32:46;;;;;;;;;0.75;0.00;;;;;6.81;72.26;100679.78;5054286;28;69159;-59
2024/03/24 05:35:12;;;;;;;;;1.25;0.25;;;;;6.82;72.22;100685.88;5058123;28;45799;-59
2024/03/24 05:37:38;;;;;;;;;0.00;0.00;;;;;6.83;72.18;100687.56;5055172;28;66374;-58
2024/03/24 05:40:04;;;;;;;;;2.25;1.00;;;;;6.83;72.00;100674.56;5061911;28;45773;-57
2024/03/24 05:42:29;;;;;;;;;1.00;1.00;;;;;6.83;72.02;100682.38;5052187;28;45283;-59
2024/03/24 05:44:54;;;;;;;;;2.50;1.00;;;;;6.81;71.95;100676.31;5065941;28;73217;-59
2024/03/24 05:47:19;;;;;;;;;3.25;1.00;;;;;6.78;72.08;100681.56;5045882;27;65771;-59
2024/03/24 05:49:45;;;;;;;;;2.25;0.00;;;;;6.77;72.11;100685.91;5044820;28;64750;-59
2024/03/24 05:52:10;;;;;;;;;1.50;1.00;;;;;6.78;72.14;100674.63;5049902;28;69565;-59
2024/03/24 05:54:35;;;;;;;;;2.75;0.00;;;;;6.78;72.04;100684.16;5044468;28;72777;-59
2024/03/24 05:57:01;;;;;;;;;1.00;0.50;;;;;6.80;72.04;100687.63;5049014;28;75310;-59
2024/03/24 05:59:26;;;;;;;;;0.00;0.00;;;;;6.80;71.90;100690.22;5044072;28;72233;-59
2024/03/24 06:01:53;;;;;;;;;3.75;1.00;;;;;6.80;72.00;100682.44;5051629;28;56933;-59
2024/03/24 06:04:18;;;;;;;;;2.50;0.25;;;;;6.77;72.10;100685.91;5056401;28;45600;-59
2024/03/24 06:06:43;;;;;;;;;2.50;2.00;;;;;6.79;71.96;100702.34;5051087;28;54867;-59
2024/03/24 06:09:09;;;;;;;;;1.75;1.00;;;;;6.78;71.99;100702.38;5056086;28;45335;-59
2024/03/24 06:11:35;;;;;;;;;1.25;1.00;;;;;6.77;72.07;100706.72;5045184;28;45446;-59
2024/03/24 06:14:00;;;;;;;;;2.00;0.50;;;;;6.77;72.06;100701.50;5059296;28;45427;-59
2024/03/24 06:16:26;;;;;;;;;0.00;0.00;;;;;6.79;71.96;100698.91;5046629;28;46292;-59
2024/03/24 06:18:52;;;;;;;;;0.50;0.50;;;;;6.82;71.91;100691.91;5060144;28;45438;-59
2024/03/24 06:21:18;;;;;;;;;3.00;1.00;;;;;6.86;71.92;100689.28;5057326;28;45256;-59
2024/03/24 06:23:43;;;;;;;;;0.00;0.00;;;;;6.84;71.67;100690.16;5059381;28;45268;-59
2024/03/24 06:26:08;;;;;;;;;1.25;0.00;;;;;6.89;71.56;100697.91;5059525;28;77441;-59
2024/03/24 06:28:34;;;;;;;;;2.75;0.00;;;;;6.90;71.57;100691.81;5059215;27;45288;-59
2024/03/24 06:30:59;;;;;;;;;0.00;0.00;;;;;6.90;71.64;100697.00;5049965;28;45295;-59
2024/03/24 06:33:24;;;;;;;;;1.00;0.50;;;;;6.92;71.50;100697.84;5056313;28;72161;-59
2024/03/24 06:35:50;;;;;;;;;2.00;0.00;;;;;6.93;71.62;100703.94;5046788;28;75936;-59
2024/03/24 06:38:16;;;;;;;;;0.75;0.75;;;;;6.96;71.56;100712.56;5059563;28;45675;-60
2024/03/24 06:40:42;;;;;;;;;2.00;0.75;;;;;7.01;71.57;100708.16;5051738;28;45256;-60
2024/03/24 06:43:12;;;;;;;;;3.00;0.00;;;;;7.05;71.51;100706.38;5058956;28;45306;-58
2024/03/24 06:45:40;;;;;;;;;0.00;0.00;;;;;7.09;71.40;100710.66;5059024;28;46458;-59
2024/03/24 06:48:06;;;;;;;;;2.25;0.25;;;;;7.13;71.42;100717.53;5056798;28;45795;-60
2024/03/24 06:50:32;;;;;;;;;3.50;1.00;;;;;7.18;71.21;100709.69;5050404;27;45584;-59
2024/03/24 06:52:58;;;;;;;;;3.50;0.50;;;;;7.23;71.32;100702.66;5052158;28;67307;-60
2024/03/24 06:55:24;;;;;;;;;1.00;1.00;;;;;7.28;70.95;100719.09;5058670;28;45533;-60
2024/03/24 06:57:50;;;;;;;;;0.00;0.00;;;;;7.32;70.78;100709.50;5059773;28;45554;-59
2024/03/24 07:00:19;;;;;;;;;2.50;1.00;;;;;7.36;70.39;100711.16;5060020;28;45333;-60
2024/03/24 07:02:45;;;;;;;;;2.00;1.00;;;;;7.41;70.49;100709.34;5060044;28;45520;-60
2024/03/24 07:05:10;;;;;;;;;1.25;1.00;;;;;7.44;70.33;100711.03;5058654;28;45415;-59
2024/03/24 07:07:36;;;;;;;;;3.00;0.00;;;;;7.47;70.26;100696.25;5038598;28;72056;-59
2024/03/24 07:10:08;;;;;;;;;0.00;0.00;;;;;7.55;70.08;100711.75;5058992;28;45713;-59
2024/03/24 07:12:34;;;;;;;;;3.00;0.00;;;;;7.55;69.97;100701.34;5060287;28;45303;-59
2024/03/24 07:15:00;;;;;;;;;2.00;0.00;;;;;7.57;69.93;100708.25;5058565;28;46204;-59
2024/03/24 07:17:25;;;;;;;;;2.75;0.00;;;;;7.62;69.90;100710.78;5059573;28;45384;-60
2024/03/24 07:19:51;;;;;;;;;2.50;0.50;;;;;7.66;69.72;100717.66;5057631;28;61018;-59
2024/03/24 07:22:16;;;;;;;;;0.00;0.00;;;;;7.65;69.44;100707.25;5059582;28;55265;-59
2024/03/24 07:24:42;;;;;;;;;1.50;1.00;;;;;7.72;69.52;100719.31;5056533;28;46283;-59
2024/03/24 07:27:07;;;;;;;;;4.00;2.00;;;;;7.73;69.52;100706.25;5049751;28;62944;-59
2024/03/24 07:29:32;;;;;;;;;2.75;1.00;;;;;7.78;69.48;100720.06;5052823;28;45525;-59
2024/03/24 07:31:58;;;;;;;;;1.00;1.00;;;;;7.83;69.30;100720.00;5057245;28;45391;-59
2024/03/24 07:34:23;;;;;;;;;3.75;0.00;;;;;7.87;69.17;100728.63;5050766;28;46247;-59
2024/03/24 07:36:48;;;;;;;;;2.75;1.00;;;;;7.93;69.41;100732.00;5055056;28;72686;-59
2024/03/24 07:39:14;;;;;;;;;3.00;0.25;;;;;7.97;69.25;100723.25;5052106;27;47768;-59
2024/03/24 07:41:40;;;;;;;;;1.75;0.75;;;;;8.10;69.16;100729.13;5052983;28;45525;-59
2024/03/24 07:44:05;;;;;;;;;2.00;1.00;;;;;8.29;69.19;100732.28;5051116;28;75412;-59
2024/03/24 07:46:31;;;;;;;;;1.00;1.00;;;;;8.42;68.68;100737.28;5058750;28;73279;-57
2024/03/24 07:48:56;;;;;;;;;6.00;2.00;;;;;8.47;68.25;100741.53;5059855;28;60555;-58
2024/03/24 07:51:21;;;;;;;;;0.00;0.00;;;;;8.53;68.03;100738.84;5059634;28;70825;-58
2024/03/24 07:53:48;;;;;;;;;1.00;0.00;;;;;8.66;67.78;100742.06;5056845;28;46334;-59
2024/03/24 07:56:14;;;;;;;;;2.00;1.50;;;;;8.80;67.72;100743.53;5054314;28;45367;-59
2024/03/24 07:58:39;;;;;;;;;4.00;0.00;;;;;8.96;67.40;100746.69;5051418;28;45329;-60
2024/03/24 08:01:05;;;;;;;;;1.00;1.00;;;;;9.01;67.07;100752.69;5053083;28;45387;-59
2024/03/24 08:03:31;;;;;;;;;2.00;1.00;;;;;9.06;67.10;100758.69;5050536;28;63524;-59
2024/03/24 08:05:56;;;;;;;;;1.00;0.00;;;;;9.14;67.15;100748.94;5053872;28;45894;-61
2024/03/24 08:08:22;;;;;;;;;1.25;0.25;;;;;9.20;66.95;100746.19;5056390;28;45487;-59
2024/03/24 08:10:47;;;;;;;;;4.75;0.50;;;;;9.31;67.01;100738.13;5057737;28;45574;-59
2024/03/24 08:13:13;;;;;;;;;2.50;0.50;;;;;9.39;66.81;100743.22;5044125;28;46132;-59
2024/03/24 08:15:38;;;;;;;;;3.00;2.00;;;;;9.44;66.77;100755.25;5060436;28;62291;-59
2024/03/24 08:18:04;;;;;;;;;2.75;0.75;;;;;9.46;66.43;100747.41;5052468;28;59945;-59
2024/03/24 08:20:29;;;;;;;;;3.50;1.00;;;;;9.54;66.40;100747.22;5044205;28;54672;-60
2024/03/24 08:22:54;;;;;;;;;2.00;1.00;;;;;9.60;66.51;100753.16;5043748;28;64766;-59
2024/03/24 08:25:20;;;;;;;;;9.00;2.50;;;;;9.67;66.60;100757.34;5053558;28;60969;-60
2024/03/24 08:27:45;;;;;;;;;4.25;1.25;;;;;9.68;65.84;100761.72;5027795;28;45360;-60
2024/03/24 08:30:11;;;;;;;;;2.00;1.00;;;;;9.74;66.21;100758.09;5029085;28;66103;-59
2024/03/24 08:32:36;;;;;;;;;4.50;1.00;;;;;9.82;66.07;100750.06;5053938;28;45468;-59
2024/03/24 08:35:01;;;;;;;;;2.25;1.00;;;;;9.93;65.87;100755.88;5056574;28;45665;-59
2024/03/24 08:37:27;;;;;;;;;6.00;1.00;;;;;10.00;65.51;100756.59;5043247;28;48909;-59
2024/03/24 08:39:52;;;;;;;;;1.00;0.00;;;;;10.11;65.36;100766.78;5044150;28;70368;-60
2024/03/24 08:42:17;;;;;;;;;2.00;1.00;;;;;10.18;65.10;100770.97;5056210;28;45614;-59
2024/03/24 08:44:43;;;;;;;;;2.75;1.00;;;;;10.24;64.66;100758.59;5057662;28;59645;-60
2024/03/24 08:47:09;;;;;;;;;4.00;1.75;;;;;10.26;64.34;100758.56;5059989;28;45371;-60
2024/03/24 08:49:34;;;;;;;;;4.00;0.00;;;;;10.26;64.43;100755.94;5055702;28;45257;-59
2024/03/24 08:51:59;;;;;;;;;3.75;1.00;;;;;10.32;64.24;100749.72;5057641;28;46309;-59
2024/03/24 08:54:25;;;;;;;;;3.00;2.00;;;;;10.36;64.31;100749.63;5074366;27;71980;-60
2024/03/24 08:56:50;;;;;;;;;2.25;1.00;;;;;10.39;64.10;100759.13;5059542;28;45391;-59
2024/03/24 08:59:16;;;;;;;;;4.75;2.00;;;;;10.43;63.84;100748.56;5074225;27;69384;-60
2024/03/24 09:01:41;;;;;;;;;5.50;2.00;;;;;10.51;63.84;100750.13;5044958;28;46886;-60
2024/03/24 09:04:06;;;;;;;;;5.25;1.00;;;;;10.54;63.35;100753.50;5046827;28;45520;-60
2024/03/24 09:06:32;;;;;;;;;4.00;1.75;;;;;10.65;63.68;100755.84;5058525;28;54178;-60
2024/03/24 09:08:57;;;;;;;;;3.00;1.75;;;;;10.72;63.29;100761.78;5056045;28;45405;-61
2024/03/24 09:11:22;;;;;;;;;1.75;1.25;;;;;10.74;63.32;100760.81;5037849;28;46199;-63
2024/03/24 09:13:48;;;;;;;;;1.25;1.25;;;;;10.80;63.15;100750.19;5057147;28;45497;-71
2024/03/24 09:16:13;;;;;;;;;3.25;1.50;;;;;10.91;62.43;100754.28;5056201;28;46153;-61
2024/03/24 09:18:38;;;;;;;;;8.00;1.00;;;;;10.96;62.45;100750.63;5056115;28;45401;-62
2024/03/24 09:21:05;;;;;;;;;1.00;1.00;;;;;10.95;62.57;100758.53;5066146;27;77022;-67
2024/03/24 09:23:32;;;;;;;;;1.50;1.00;;;;;10.92;62.40;100753.38;5056139;28;45813;-61
2024/03/24 09:25:58;;;;;;;;;2.50;1.25;;;;;10.97;62.53;100751.47;5058855;28;45232;-61
2024/03/24 09:28:23;;;;;;;;;3.25;2.25;;;;;11.07;62.72;100752.09;5025478;28;45458;-62
2024/03/24 09:30:59;;;;;;;;;2.00;1.00;;;;;11.17;62.16;100754.41;5048160;28;46812;-63
2024/03/24 09:33:24;;;;;;;;;5.00;2.00;;;;;11.21;62.24;100752.53;5056698;28;45383;-62
2024/03/24 09:35:50;;;;;;;;;5.00;2.50;;;;;11.25;62.13;100759.41;5056776;28;45636;-60
2024/03/24 09:38:15;;;;;;;;;3.25;3.00;;;;;11.29;61.66;100762.78;5057422;28;72407;-61
2024/03/24 09:40:41;;;;;;;;;1.00;1.00;;;;;11.35;61.86;100763.47;5056440;28;46439;-61
2024/03/24 09:43:07;;;;;;;;;5.50;2.00;;;;;11.40;61.32;100768.53;5043417;28;45363;-62
2024/03/24 09:45:34;;;;;;;;;2.00;0.50;;;;;11.39;61.43;100766.84;5048859;28;45382;-64
2024/03/24 09:47:59;;;;;;;;;4.00;2.00;;;;;11.30;61.27;100751.41;5043495;28;45562;-61
2024/03/24 09:50:25;;;;;;;;;4.25;2.00;;;;;11.28;61.39;100763.66;5055589;28;64258;-61
2024/03/24 09:52:52;;;;;;;;;3.00;2.00;;;;;11.21;61.36;100748.16;5059206;28;58434;-59
2024/03/24 09:55:17;;;;;;;;;3.75;2.00;;;;;11.29;61.72;100750.53;5059857;28;45684;-61
2024/03/24 09:57:44;;;;;;;;;5.00;4.00;;;;;11.32;61.43;100752.22;5044416;28;62354;-56
2024/03/24 10:00:11;;;;;;;;;3.25;2.00;;;;;11.33;61.89;100754.81;5060330;28;53959;-56
2024/03/24 10:02:36;;;;;;;;;6.00;2.00;;;;;11.41;61.43;100751.94;5057898;28;45294;-56
2024/03/24 10:05:03;;;;;;;;;4.75;2.25;;;;;11.41;61.19;100751.94;5060791;28;60568;-60
2024/03/24 10:07:28;;;;;;;;;4.75;1.75;;;;;11.44;61.07;100756.22;5059237;28;45498;-59
2024/03/24 10:09:54;;;;;;;;;3.00;3.00;;;;;11.49;61.41;100751.69;5051918;28;75065;-60
2024/03/24 10:12:19;;;;;;;;;5.00;3.00;;;;;11.65;61.18;100752.97;5048508;28;72165;-59
2024/03/24 10:14:45;;;;;;;;;3.75;2.75;;;;;11.94;60.47;100753.81;5058542;28;45890;-60
2024/03/24 10:17:19;;;;;;;;;4.00;2.00;;;;;12.13;59.85;100754.94;5049818;28;45312;-59
2024/03/24 10:19:53;;;;;;;;;6.50;4.50;;;;;12.28;59.77;100755.31;5056315;28;46711;-59
2024/03/24 10:22:19;;;;;;;;;3.25;2.00;;;;;12.35;59.33;100755.06;5057753;28;45445;-60
2024/03/24 10:24:45;;;;;;;;;4.00;4.00;;;;;12.37;59.39;100762.03;5050302;28;45316;-60
2024/03/24 10:27:12;;;;;;;;;4.00;2.50;;;;;12.37;58.84;100759.41;5054311;28;45612;-60
2024/03/24 10:29:38;;;;;;;;;6.75;4.00;;;;;12.45;58.55;100747.75;5058040;27;46691;-60
2024/03/24 10:32:04;;;;;;;;;5.50;3.00;;;;;12.53;57.54;100752.72;5060296;28;45809;-60
2024/03/24 10:34:35;;;;;;;;;7.75;4.75;;;;;12.59;57.63;100744.63;5054320;28;45438;-60
2024/03/24 10:37:00;;;;;;;;;2.00;2.00;;;;;12.63;57.59;100748.00;5053780;28;45344;-61
2024/03/24 10:39:27;;;;;;;;;8.00;4.00;;;;;12.62;57.21;100749.75;5057127;28;46081;-60
2024/03/24 10:41:53;;;;;;;;;8.00;5.00;;;;;12.56;57.12;100742.13;5056330;28;45799;-60
2024/03/24 10:44:19;;;;;;;;;6.75;4.00;;;;;12.61;57.39;100739.34;5053523;28;45517;-61
2024/03/24 10:46:46;;;;;;;;;5.50;4.25;;;;;12.62;56.46;100743.66;5049476;28;53260;-61
2024/03/24 10:49:13;;;;;;;;;7.75;3.50;;;;;12.58;56.08;100727.16;5049735;28;45299;-60
2024/03/24 10:51:39;;;;;;;;;7.50;3.75;;;;;12.53;56.75;100737.81;5052605;28;64614;-59
2024/03/24 10:54:07;;;;;;;;;5.25;3.00;;;;;12.48;56.50;100724.03;5056502;28;45528;-57
2024/03/24 10:56:32;;;;;;;;;7.75;4.00;;;;;12.49;56.55;100730.13;5050567;28;45481;-57
2024/03/24 10:59:00;;;;;;;;;5.75;4.50;;;;;12.44;56.85;100729.41;5049847;28;75327;-57
2024/03/24 11:01:26;;;;;;;;;7.00;4.00;;;;;12.45;56.63;100718.88;5056684;28;45509;-57
2024/03/24 11:03:52;;;;;;;;;6.75;4.50;;;;;12.57;56.36;100730.72;5060675;28;45400;-59
2024/03/24 11:06:17;;;;;;;;;3.25;3.25;;;;;12.64;56.63;100712.94;5059002;28;45359;-55
2024/03/24 11:08:43;;;;;;;;;14.00;6.75;;;;;12.70;56.07;100708.34;5059025;28;46308;-56
2024/03/24 11:11:08;;;;;;;;;3.25;3.00;;;;;12.75;56.09;100702.94;5053372;28;71631;-53
2024/03/24 11:13:35;;;;;;;;;4.50;4.00;;;;;12.81;55.43;100697.44;5049748;28;51846;-54
2024/03/24 11:16:02;;;;;;;;;9.00;4.00;;;;;12.93;55.70;100695.28;5035050;28;45745;-56
2024/03/24 11:18:29;;;;;;;;;4.50;3.00;;;;;13.00;55.13;100694.16;5031674;28;47362;-54
2024/03/24 11:20:57;;;;;;;;;4.25;3.50;;;;;12.99;55.00;100684.53;5054638;28;45811;-55
2024/03/24 11:23:32;;;;;;;;;3.00;3.00;;;;;12.95;55.56;100675.91;5051184;28;45587;-55